Terminal Aerodrome Forecast
Issued by NWS

Home | Current Version | Previous Version | Text Only | Print | Product List | Glossary On
Versions: 1 2 3 4 5 6 7 8 9 10 11 12 13 14 15 16 17 18 19 20
000
FTUS46 KPDT 211700
TAFYKM
TAF
KYKM 211728Z 2118/2218 VRB04KT P6SM SCT070
     FM212000 21008KT P6SM SCT070
     FM220200 VRB06KT P6SM BKN070 OVC120
     FM221200 VRB05KT P6SM -SHRA BKN050 OVC100=

USA.gov is the U.S. government's official web portal to all federal, state and local government web resources and services.